createdAt,value
2022-09-20T00:00:47.801Z,13.70
2022-09-20T00:03:15.396Z,13.70
2022-09-20T00:05:44.200Z,13.70
2022-09-20T00:08:14.020Z,13.70
2022-09-20T00:10:40.813Z,13.70
2022-09-20T00:13:09.294Z,13.60
2022-09-20T00:15:42.092Z,13.60
2022-09-20T00:18:08.946Z,13.60
2022-09-20T00:20:35.927Z,13.60
2022-09-20T00:23:02.570Z,13.60
2022-09-20T00:25:30.225Z,13.50
2022-09-20T00:27:57.058Z,13.60
2022-09-20T00:30:23.966Z,13.60
2022-09-20T00:32:50.818Z,13.50
2022-09-20T00:35:17.681Z,13.50
2022-09-20T00:37:44.600Z,13.60
2022-09-20T00:40:17.418Z,13.50
2022-09-20T00:42:44.082Z,13.60
2022-09-20T00:45:28.481Z,13.50
2022-09-20T00:47:57.676Z,13.50
2022-09-20T00:50:43.778Z,13.60
2022-09-20T00:53:18.665Z,13.50
2022-09-20T00:55:52.280Z,13.50
2022-09-20T00:58:21.143Z,13.50
2022-09-20T01:00:49.686Z,13.50
2022-09-20T01:03:20.200Z,13.50
2022-09-20T01:05:47.136Z,13.50
2022-09-20T01:08:13.967Z,13.50
2022-09-20T01:10:40.721Z,13.50
2022-09-20T01:13:08.017Z,13.50
2022-09-20T01:15:36.336Z,13.50
2022-09-20T01:18:03.630Z,13.40
2022-09-20T01:20:36.644Z,13.50
2022-09-20T01:23:22.912Z,13.50
2022-09-20T01:25:49.631Z,13.50
2022-09-20T01:28:16.772Z,13.40
2022-09-20T01:31:26.804Z,13.40
2022-09-20T01:34:32.928Z,13.40
2022-09-20T01:37:23.005Z,13.40
2022-09-20T01:39:52.370Z,13.40
2022-09-20T01:42:19.481Z,13.40
2022-09-20T01:45:02.563Z,13.40
2022-09-20T01:47:47.521Z,13.40
2022-09-20T01:50:51.809Z,13.40
2022-09-20T01:53:55.669Z,13.40
2022-09-20T01:56:41.374Z,13.40
2022-09-20T01:59:23.033Z,13.30
2022-09-20T02:02:01.928Z,13.40
2022-09-20T02:04:55.206Z,13.30
2022-09-20T02:07:45.742Z,13.30
2022-09-20T02:10:15.814Z,13.30
2022-09-20T02:13:21.448Z,13.40
2022-09-20T02:16:03.531Z,13.30
2022-09-20T02:18:36.083Z,13.30
2022-09-20T02:21:40.752Z,13.30
2022-09-20T02:24:15.170Z,13.30
2022-09-20T02:26:54.197Z,13.30
2022-09-20T02:29:26.011Z,13.30
2022-09-20T02:32:12.284Z,13.30
2022-09-20T02:34:38.847Z,13.30
2022-09-20T02:37:11.413Z,13.30
2022-09-20T02:39:59.335Z,13.30
2022-09-20T02:42:38.759Z,13.30
2022-09-20T02:45:15.998Z,13.30
2022-09-20T02:47:45.605Z,13.20
2022-09-20T02:50:24.337Z,13.20
2022-09-20T02:53:18.955Z,13.20
2022-09-20T02:55:50.388Z,13.20
2022-09-20T02:58:40.744Z,13.20
2022-09-20T03:01:18.058Z,13.20
2022-09-20T03:03:51.332Z,13.20
2022-09-20T03:06:51.062Z,13.20
2022-09-20T03:09:42.899Z,13.20
2022-09-20T03:12:43.626Z,13.20
2022-09-20T03:15:28.708Z,13.20
2022-09-20T03:17:58.069Z,13.20
2022-09-20T03:20:33.890Z,13.20
2022-09-20T03:23:06.455Z,13.10
2022-09-20T03:25:56.881Z,13.10
2022-09-20T03:28:58.237Z,13.10
2022-09-20T03:31:33.867Z,13.20
2022-09-20T03:34:30.833Z,13.10
2022-09-20T03:37:06.417Z,13.10
2022-09-20T03:39:54.117Z,13.10
2022-09-20T03:42:26.896Z,13.10
2022-09-20T03:44:57.784Z,13.10
2022-09-20T03:48:01.788Z,13.10
2022-09-20T03:50:51.341Z,13.10
2022-09-20T03:53:34.832Z,13.10
2022-09-20T03:56:19.103Z,13.10
2022-09-20T03:58:57.000Z,13.10
2022-09-20T04:01:36.920Z,13.10
2022-09-20T04:04:34.770Z,13.10
2022-09-20T04:07:23.518Z,13.10
2022-09-20T04:10:07.831Z,13.00
2022-09-20T04:13:11.605Z,13.00
2022-09-20T04:16:16.023Z,13.00
2022-09-20T04:19:09.646Z,13.00
2022-09-20T04:21:59.357Z,13.00
2022-09-20T04:24:40.718Z,13.00
2022-09-20T04:27:29.937Z,13.00
2022-09-20T04:30:24.256Z,13.00
2022-09-20T04:33:00.676Z,13.00
2022-09-20T04:36:00.561Z,13.00
2022-09-20T04:38:27.672Z,12.90
2022-09-20T04:41:00.081Z,13.00
2022-09-20T04:43:32.980Z,13.00
2022-09-20T04:46:17.191Z,13.00
2022-09-20T04:49:15.391Z,13.00
2022-09-20T04:52:04.124Z,12.90
2022-09-20T04:54:39.337Z,12.90
2022-09-20T04:57:39.905Z,12.90
2022-09-20T05:00:14.144Z,13.00
2022-09-20T05:03:16.833Z,13.00
2022-09-20T05:05:49.485Z,13.00
2022-09-20T05:08:43.924Z,13.00
2022-09-20T05:11:49.819Z,13.00
2022-09-20T05:14:25.796Z,13.00
2022-09-20T05:17:02.652Z,14.40
2022-09-20T05:19:32.396Z,12.90
2022-09-20T05:22:26.701Z,12.90
2022-09-20T05:25:25.849Z,12.90
2022-09-20T05:28:21.734Z,12.90
2022-09-20T05:30:55.476Z,12.90
2022-09-20T05:33:44.936Z,12.90
2022-09-20T05:36:47.890Z,12.90
2022-09-20T05:39:41.151Z,12.90
2022-09-20T05:42:15.012Z,12.90
2022-09-20T05:44:56.409Z,12.90
2022-09-20T05:47:40.665Z,12.90
2022-09-20T05:50:20.416Z,12.90
2022-09-20T05:53:25.026Z,12.90
2022-09-20T05:56:30.255Z,13.00
2022-09-20T05:59:15.009Z,12.90
2022-09-20T06:02:13.275Z,12.90
2022-09-20T06:05:03.601Z,12.90
2022-09-20T06:07:48.785Z,12.90
2022-09-20T06:10:19.851Z,12.90
2022-09-20T06:13:11.622Z,12.90
2022-09-20T06:15:45.782Z,12.90
2022-09-20T06:18:23.725Z,12.90
2022-09-20T06:21:09.254Z,12.90
2022-09-20T06:23:36.702Z,12.90
2022-09-20T06:26:07.847Z,12.90
2022-09-20T06:28:39.178Z,12.90
2022-09-20T06:31:09.208Z,12.90
2022-09-20T06:33:44.304Z,12.90
2022-09-20T06:36:40.239Z,12.90
2022-09-20T06:39:37.423Z,12.90
2022-09-20T06:42:04.411Z,13.00
2022-09-20T06:44:31.255Z,13.00
2022-09-20T06:46:58.062Z,13.10
2022-09-20T06:49:28.225Z,13.00
2022-09-20T06:51:55.809Z,13.10
2022-09-20T06:54:23.330Z,13.00
2022-09-20T06:56:51.294Z,13.10
2022-09-20T06:59:17.946Z,13.10
2022-09-20T07:01:44.753Z,13.10
2022-09-20T07:04:11.515Z,13.10
2022-09-20T07:06:38.412Z,13.20
2022-09-20T07:09:05.903Z,13.20
2022-09-20T07:11:34.989Z,13.20
2022-09-20T07:14:02.161Z,13.30
2022-09-20T07:16:29.347Z,13.30
2022-09-20T07:18:56.872Z,13.30
2022-09-20T07:21:23.761Z,13.30
2022-09-20T07:23:51.194Z,13.30
2022-09-20T07:26:26.886Z,13.40
2022-09-20T07:28:54.160Z,13.40
2022-09-20T07:31:25.744Z,13.40
2022-09-20T07:33:52.642Z,13.50
2022-09-20T07:36:19.538Z,13.50
2022-09-20T07:38:50.673Z,13.50
2022-09-20T07:41:23.248Z,13.50
2022-09-20T07:43:51.068Z,13.50
2022-09-20T07:46:20.648Z,13.60
2022-09-20T07:48:47.413Z,13.60
2022-09-20T07:51:14.576Z,13.60
2022-09-20T07:53:41.261Z,13.70
2022-09-20T07:56:13.896Z,13.80
2022-09-20T07:58:41.812Z,13.80
2022-09-20T08:01:10.774Z,13.80
2022-09-20T08:03:37.844Z,13.80
2022-09-20T08:06:07.245Z,13.90
2022-09-20T08:08:38.364Z,13.90
2022-09-20T08:11:17.037Z,13.90
2022-09-20T08:16:38.707Z,14.00
2022-09-20T08:19:05.779Z,14.10
2022-09-20T08:21:35.032Z,14.20
2022-09-20T08:24:02.002Z,14.30
2022-09-20T08:26:29.345Z,14.30
2022-09-20T08:28:57.790Z,14.40
2022-09-20T08:31:26.733Z,14.60
2022-09-20T08:33:54.475Z,14.60
2022-09-20T08:36:24.415Z,14.70
2022-09-20T08:42:02.219Z,14.90
2022-09-20T08:44:45.425Z,15.00
2022-09-20T08:47:22.029Z,15.10
2022-09-20T08:49:50.141Z,15.20
2022-09-20T08:52:22.343Z,15.30
2022-09-20T08:54:49.064Z,15.40
2022-09-20T08:57:17.967Z,15.40
2022-09-20T08:59:45.130Z,15.50
2022-09-20T09:02:16.643Z,15.60
2022-09-20T09:04:45.120Z,15.60
2022-09-20T09:07:21.626Z,15.70
2022-09-20T09:09:51.870Z,15.70
2022-09-20T09:12:28.035Z,15.80
2022-09-20T09:15:04.679Z,15.80
2022-09-20T09:17:31.511Z,15.90
2022-09-20T09:20:00.312Z,15.90
2022-09-20T09:22:40.038Z,16.00
2022-09-20T09:25:42.112Z,15.90
2022-09-20T09:28:08.758Z,15.90
2022-09-20T09:30:38.040Z,15.90
2022-09-20T09:33:29.422Z,15.90
2022-09-20T09:35:58.986Z,15.90
2022-09-20T09:38:37.021Z,15.90
2022-09-20T09:41:29.882Z,15.90
2022-09-20T09:44:05.200Z,15.90
2022-09-20T09:46:34.435Z,16.50
2022-09-20T09:49:22.117Z,15.90
2022-09-20T09:52:16.411Z,15.90
2022-09-20T09:54:55.175Z,16.00
2022-09-20T09:57:43.566Z,15.90
2022-09-20T10:00:22.283Z,16.00
2022-09-20T10:03:13.861Z,16.00
2022-09-20T10:05:59.594Z,16.00
2022-09-20T10:08:56.688Z,16.10
2022-09-20T10:11:46.820Z,16.10
2022-09-20T10:14:22.583Z,16.10
2022-09-20T10:17:28.453Z,16.20
2022-09-20T10:20:20.096Z,16.20
2022-09-20T10:26:02.532Z,16.30
2022-09-20T10:28:48.488Z,16.40
2022-09-20T10:31:37.277Z,16.40
2022-09-20T10:34:38.522Z,16.40
2022-09-20T10:37:13.811Z,16.50
2022-09-20T10:39:43.657Z,16.50
2022-09-20T10:43:01.053Z,16.60
2022-09-20T10:48:35.545Z,16.60
2022-09-20T10:51:20.404Z,16.70
2022-09-20T10:54:14.190Z,16.70
2022-09-20T10:56:47.106Z,16.80
2022-09-20T10:59:30.238Z,16.80
2022-09-20T11:02:25.932Z,16.80
2022-09-20T11:05:14.404Z,16.80
2022-09-20T11:07:41.040Z,16.90
2022-09-20T11:10:25.155Z,16.90
2022-09-20T11:12:59.519Z,17.00
2022-09-20T11:15:43.196Z,17.00
2022-09-20T11:18:45.471Z,17.00
2022-09-20T11:21:19.175Z,17.10
2022-09-20T11:24:13.382Z,17.20
2022-09-20T11:26:55.891Z,17.20
2022-09-20T11:29:42.250Z,17.20
2022-09-20T11:32:20.721Z,17.30
2022-09-20T11:34:56.494Z,17.40
2022-09-20T11:37:27.539Z,17.40
2022-09-20T11:39:55.623Z,17.40
2022-09-20T11:42:31.844Z,17.50
2022-09-20T11:44:58.671Z,17.50
2022-09-20T11:47:53.399Z,17.60
2022-09-20T11:50:56.850Z,17.70
2022-09-20T11:53:53.038Z,17.70
2022-09-20T11:56:25.359Z,17.80
2022-09-20T11:59:03.998Z,17.90
2022-09-20T12:01:32.502Z,18.00
2022-09-20T12:04:30.576Z,18.00
2022-09-20T12:07:18.121Z,18.00
2022-09-20T12:09:51.661Z,18.10
2022-09-20T12:12:41.540Z,18.20
2022-09-20T12:15:31.103Z,18.30
2022-09-20T12:17:57.738Z,18.30
2022-09-20T12:20:34.726Z,18.40
2022-09-20T12:23:42.170Z,18.40
2022-09-20T12:26:19.009Z,18.50
2022-09-20T12:28:52.795Z,18.60
2022-09-20T12:31:22.668Z,18.60
2022-09-20T12:33:59.269Z,18.70
2022-09-20T12:36:27.813Z,18.80
2022-09-20T12:38:58.153Z,18.90
2022-09-20T12:41:28.596Z,19.00
2022-09-20T12:44:19.590Z,19.10
2022-09-20T12:47:08.378Z,19.10
2022-09-20T12:50:00.594Z,19.20
2022-09-20T12:52:56.788Z,19.40
2022-09-20T12:55:42.419Z,19.50
2022-09-20T12:58:13.385Z,19.60
2022-09-20T13:00:55.488Z,19.70
2022-09-20T13:03:39.110Z,19.80
2022-09-20T13:06:06.020Z,20.00
2022-09-20T13:08:42.760Z,20.00
2022-09-20T13:11:22.497Z,20.10
2022-09-20T13:14:04.259Z,20.20
2022-09-20T13:16:36.998Z,20.30
2022-09-20T13:19:09.907Z,20.50
2022-09-20T13:21:42.446Z,20.50
2022-09-20T13:24:15.526Z,20.60
2022-09-20T13:26:45.838Z,20.30
2022-09-20T13:29:34.977Z,20.70
2022-09-20T13:32:27.228Z,20.70
2022-09-20T13:35:12.791Z,20.80
2022-09-20T13:38:02.894Z,20.80
2022-09-20T13:40:49.620Z,20.80
2022-09-20T13:43:33.376Z,20.80
2022-09-20T13:46:11.227Z,20.80
2022-09-20T13:48:38.089Z,20.80
2022-09-20T13:51:19.018Z,20.80
2022-09-20T13:53:47.429Z,20.80
2022-09-20T13:56:28.662Z,20.80
2022-09-20T13:58:58.850Z,20.80
2022-09-20T14:01:34.209Z,20.70
2022-09-20T14:04:16.051Z,20.70
2022-09-20T14:06:43.090Z,20.70
2022-09-20T14:09:50.361Z,20.60
2022-09-20T14:12:17.516Z,20.60
2022-09-20T14:14:44.266Z,20.60
2022-09-20T14:17:14.915Z,20.60
2022-09-20T14:19:42.945Z,20.50
2022-09-20T14:22:18.690Z,20.40
2022-09-20T14:24:59.490Z,20.40
2022-09-20T14:27:26.423Z,20.30
2022-09-20T14:29:54.613Z,20.30
2022-09-20T14:32:21.603Z,20.10
2022-09-20T14:35:00.069Z,20.20
2022-09-20T14:37:31.553Z,20.10
2022-09-20T14:40:01.224Z,20.10
2022-09-20T14:42:57.440Z,20.00
2022-09-20T14:45:27.842Z,20.00
2022-09-20T14:48:26.561Z,20.00
2022-09-20T14:51:10.649Z,19.80
2022-09-20T14:53:38.411Z,20.60
2022-09-20T14:56:05.117Z,19.80
2022-09-20T14:58:32.618Z,19.70
2022-09-20T15:01:05.351Z,19.70
2022-09-20T15:03:38.643Z,19.70
2022-09-20T15:06:13.193Z,19.70
2022-09-20T15:14:38.268Z,19.60
2022-09-20T15:17:05.575Z,19.60
2022-09-20T15:19:32.311Z,19.60
2022-09-20T15:22:01.846Z,19.60
2022-09-20T15:24:28.824Z,19.60
2022-09-20T15:26:55.890Z,19.60
2022-09-20T15:29:22.574Z,19.70
2022-09-20T15:31:49.318Z,19.80
2022-09-20T15:34:16.567Z,19.80
2022-09-20T15:36:43.342Z,19.90
2022-09-20T15:39:10.250Z,19.90
2022-09-20T15:41:37.446Z,20.00
2022-09-20T15:44:05.049Z,20.00
2022-09-20T15:46:32.166Z,20.00
2022-09-20T15:49:00.898Z,20.00
2022-09-20T15:51:30.315Z,20.20
2022-09-20T15:53:58.331Z,20.20
2022-09-20T15:56:27.499Z,20.30
2022-09-20T15:58:59.411Z,20.30
2022-09-20T16:01:32.341Z,20.30
2022-09-20T16:04:00.182Z,20.40
2022-09-20T16:06:27.212Z,20.50
2022-09-20T16:08:53.876Z,20.50
2022-09-20T16:11:23.025Z,20.50
2022-09-20T16:13:54.300Z,20.50
2022-09-20T16:16:21.389Z,20.50
2022-09-20T16:19:07.325Z,20.50
2022-09-20T16:21:34.263Z,20.50
2022-09-20T16:24:01.505Z,20.50
2022-09-20T16:26:29.307Z,20.50
2022-09-20T16:28:55.922Z,20.50
2022-09-20T16:31:42.181Z,20.50
2022-09-20T16:34:12.529Z,20.40
2022-09-20T16:36:41.369Z,20.40
2022-09-20T16:39:08.245Z,20.40
2022-09-20T16:41:35.874Z,20.30
2022-09-20T16:44:02.680Z,20.30
2022-09-20T16:46:30.922Z,20.20
2022-09-20T16:49:00.808Z,20.20
2022-09-20T16:51:35.866Z,20.10
2022-09-20T16:54:04.658Z,20.10
2022-09-20T16:56:33.999Z,20.00
2022-09-20T16:59:02.130Z,20.00
2022-09-20T17:01:29.804Z,20.00
2022-09-20T17:03:56.885Z,20.00
2022-09-20T17:06:24.229Z,19.90
2022-09-20T17:08:58.707Z,19.80
2022-09-20T17:11:27.940Z,19.80
2022-09-20T17:13:55.235Z,19.80
2022-09-20T17:16:24.109Z,19.70
2022-09-20T17:18:55.557Z,19.60
2022-09-20T17:21:22.801Z,19.50
2022-09-20T17:23:54.960Z,19.50
2022-09-20T17:26:32.996Z,19.50
2022-09-20T17:29:01.392Z,19.40
2022-09-20T17:31:39.444Z,19.40
2022-09-20T17:34:08.448Z,19.30
2022-09-20T17:36:39.140Z,19.30
2022-09-20T17:39:06.781Z,19.20
2022-09-20T17:41:37.303Z,19.10
2022-09-20T17:44:08.250Z,19.10
2022-09-20T17:46:36.979Z,19.00
2022-09-20T17:49:06.706Z,19.00
2022-09-20T17:51:38.903Z,18.90
2022-09-20T17:54:05.789Z,18.90
2022-09-20T17:56:32.483Z,18.80
2022-09-20T17:59:00.606Z,18.80
2022-09-20T18:01:28.725Z,18.70
2022-09-20T18:03:57.869Z,18.70
2022-09-20T18:06:27.047Z,18.70
2022-09-20T18:08:57.606Z,18.50
2022-09-20T18:11:28.556Z,18.50
2022-09-20T18:13:55.309Z,18.40
2022-09-20T18:16:22.098Z,18.30
2022-09-20T18:18:49.573Z,18.30
2022-09-20T18:21:18.536Z,18.20
2022-09-20T18:23:46.276Z,18.20
2022-09-20T18:26:23.697Z,18.10
2022-09-20T18:29:04.735Z,18.10
2022-09-20T18:31:38.359Z,18.00
2022-09-20T18:34:06.931Z,18.00
2022-09-20T18:36:36.458Z,17.90
2022-09-20T18:39:03.674Z,17.90
2022-09-20T18:41:33.185Z,17.80
2022-09-20T18:44:00.826Z,17.80
2022-09-20T18:46:30.453Z,17.80
2022-09-20T18:48:59.835Z,17.80
2022-09-20T18:51:28.750Z,17.80
2022-09-20T18:53:56.415Z,17.70
2022-09-20T18:56:28.640Z,17.70
2022-09-20T18:58:59.916Z,17.70
2022-09-20T19:02:07.445Z,17.60
2022-09-20T19:04:51.948Z,17.60
2022-09-20T19:07:27.794Z,17.50
2022-09-20T19:10:08.405Z,17.50
2022-09-20T19:12:57.971Z,17.50
2022-09-20T19:15:43.076Z,17.50
2022-09-20T19:18:55.930Z,17.30
2022-09-20T19:21:50.391Z,17.30
2022-09-20T19:24:21.639Z,17.20
2022-09-20T19:26:48.690Z,17.20
2022-09-20T19:29:21.132Z,17.20
2022-09-20T19:31:49.507Z,17.10
2022-09-20T19:34:20.668Z,17.10
2022-09-20T19:37:12.153Z,17.10
2022-09-20T19:40:06.533Z,17.00
2022-09-20T19:43:00.670Z,17.00
2022-09-20T19:45:38.273Z,16.90
2022-09-20T19:48:11.242Z,16.80
2022-09-20T19:50:38.745Z,16.80
2022-09-20T19:53:05.821Z,16.80
2022-09-20T19:55:34.585Z,16.70
2022-09-20T19:58:01.944Z,16.70
2022-09-20T20:00:29.952Z,16.60
2022-09-20T20:02:57.790Z,16.60
2022-09-20T20:05:25.608Z,16.50
2022-09-20T20:07:57.738Z,16.50
2022-09-20T20:10:52.292Z,16.40
2022-09-20T20:14:00.374Z,16.40
2022-09-20T20:16:36.508Z,16.30
2022-09-20T20:19:30.063Z,16.30
2022-09-20T20:22:30.228Z,16.30
2022-09-20T20:24:59.969Z,16.20
2022-09-20T20:27:31.247Z,16.20
2022-09-20T20:29:58.199Z,15.10
2022-09-20T20:32:25.803Z,16.10
2022-09-20T20:34:52.503Z,16.10
2022-09-20T20:37:19.103Z,16.40
2022-09-20T20:39:46.151Z,16.00
2022-09-20T20:42:12.794Z,16.00
2022-09-20T20:44:39.976Z,15.90
2022-09-20T20:47:07.003Z,15.90
2022-09-20T20:49:33.832Z,15.90
2022-09-20T20:52:04.522Z,15.70
2022-09-20T20:54:32.217Z,15.90
2022-09-20T20:56:59.432Z,15.90
2022-09-20T20:59:26.177Z,15.80
2022-09-20T21:01:54.022Z,15.80
2022-09-20T21:04:21.436Z,15.80
2022-09-20T21:06:50.318Z,15.70
2022-09-20T21:09:16.990Z,15.70
2022-09-20T21:11:44.298Z,15.70
2022-09-20T21:14:12.456Z,15.70
2022-09-20T21:16:44.978Z,15.70
2022-09-20T21:19:16.729Z,15.60
2022-09-20T21:21:44.782Z,15.60
2022-09-20T21:24:13.451Z,15.50
2022-09-20T21:26:40.136Z,15.50
2022-09-20T21:29:10.853Z,15.50
2022-09-20T21:31:39.489Z,15.50
2022-09-20T21:34:07.418Z,15.40
2022-09-20T21:36:35.719Z,15.40
2022-09-20T21:39:02.853Z,15.30
2022-09-20T21:41:31.755Z,15.30
2022-09-20T21:44:00.138Z,15.30
2022-09-20T21:46:32.233Z,15.20
2022-09-20T21:49:00.740Z,15.20
2022-09-20T21:51:31.224Z,15.20
2022-09-20T21:53:59.487Z,15.30
2022-09-20T21:56:28.081Z,15.10
2022-09-20T21:58:55.264Z,15.10
2022-09-20T22:01:23.940Z,15.00
2022-09-20T22:03:57.347Z,15.00
2022-09-20T22:06:26.026Z,15.00
2022-09-20T22:08:57.728Z,14.90
2022-09-20T22:11:26.192Z,14.90
2022-09-20T22:13:54.683Z,14.80
2022-09-20T22:16:26.646Z,14.80
2022-09-20T22:18:53.877Z,14.70
2022-09-20T22:21:25.881Z,14.70
2022-09-20T22:23:56.846Z,14.70
2022-09-20T22:26:24.859Z,14.70
2022-09-20T22:28:51.815Z,14.70
2022-09-20T22:31:23.507Z,14.60
2022-09-20T22:33:52.624Z,14.60
2022-09-20T22:36:21.538Z,14.60
2022-09-20T22:38:48.494Z,14.50
2022-09-20T22:41:16.936Z,14.50
2022-09-20T22:43:43.777Z,14.50
2022-09-20T22:46:15.341Z,14.40
2022-09-20T22:48:42.464Z,14.40
2022-09-20T22:51:11.724Z,14.40
2022-09-20T22:53:38.650Z,14.30
2022-09-20T22:56:16.703Z,14.30
2022-09-20T22:58:48.920Z,14.20
2022-09-20T23:01:18.059Z,14.50
2022-09-20T23:03:46.974Z,14.20
2022-09-20T23:06:15.771Z,14.10
2022-09-20T23:08:42.790Z,14.10
2022-09-20T23:11:09.972Z,14.10
2022-09-20T23:13:36.646Z,14.10
2022-09-20T23:16:20.097Z,14.00
2022-09-20T23:18:47.669Z,14.00
2022-09-20T23:21:15.160Z,13.90
2022-09-20T23:23:43.286Z,13.90
2022-09-20T23:26:17.905Z,13.80
2022-09-20T23:28:46.353Z,13.80
2022-09-20T23:31:15.675Z,13.80
2022-09-20T23:33:54.170Z,13.70
2022-09-20T23:36:21.690Z,13.70
2022-09-20T23:38:48.908Z,13.70
2022-09-20T23:41:18.971Z,13.60
2022-09-20T23:43:45.655Z,13.60
2022-09-20T23:46:13.955Z,13.60
2022-09-20T23:48:44.527Z,13.60
2022-09-20T23:51:14.141Z,13.50
2022-09-20T23:53:41.909Z,13.70
2022-09-20T23:56:10.085Z,13.50
2022-09-20T23:58:38.637Z,13.40
